createdAt,value
2017-12-16T00:02:16.086Z,46.20
2017-12-16T00:04:41.834Z,40.63
2017-12-16T00:07:07.868Z,46.93
2017-12-16T00:09:33.800Z,42.50
2017-12-16T00:11:59.596Z,46.27
2017-12-16T00:14:25.333Z,43.03
2017-12-16T00:16:51.303Z,42.83
2017-12-16T00:19:17.054Z,39.97
2017-12-16T00:21:42.818Z,46.23
2017-12-16T00:24:08.571Z,49.27
2017-12-16T00:26:34.342Z,47.07
2017-12-16T00:29:00.185Z,44.80
2017-12-16T00:31:25.985Z,49.00
2017-12-16T00:33:51.760Z,49.90
2017-12-16T00:36:17.511Z,53.07
2017-12-16T00:38:43.556Z,51.60
2017-12-16T00:41:09.307Z,53.65
2017-12-16T00:43:35.080Z,54.20
2017-12-16T00:46:00.831Z,48.80
2017-12-16T00:48:26.578Z,54.13
2017-12-16T00:50:52.332Z,51.40
2017-12-16T00:53:18.123Z,50.37
2017-12-16T00:55:43.855Z,54.80
2017-12-16T00:58:09.613Z,54.73
2017-12-16T01:00:35.654Z,53.57
2017-12-16T01:03:01.416Z,51.15
2017-12-16T01:05:27.163Z,51.97
2017-12-16T01:07:52.911Z,53.00
2017-12-16T01:10:18.667Z,53.47
2017-12-16T01:12:44.427Z,47.13
2017-12-16T01:15:10.199Z,53.73
2017-12-16T01:17:35.948Z,51.90
2017-12-16T01:20:01.721Z,48.13
2017-12-16T01:22:27.460Z,53.53
2017-12-16T01:24:53.199Z,48.93
2017-12-16T01:27:18.958Z,47.47
2017-12-16T01:29:44.737Z,43.27
2017-12-16T01:32:10.475Z,48.90
2017-12-16T01:34:48.776Z,45.07
2017-12-16T01:40:13.455Z,46.30
2017-12-16T01:42:39.208Z,51.57
2017-12-16T01:45:05.005Z,51.37
2017-12-16T01:47:30.751Z,51.93
2017-12-16T01:49:56.499Z,56.97
2017-12-16T01:52:22.247Z,62.33
2017-12-16T01:54:48.003Z,59.10
2017-12-16T01:57:13.763Z,58.97
2017-12-16T01:59:39.502Z,58.13
2017-12-16T02:02:05.260Z,59.10
2017-12-16T02:04:31.034Z,70.73
2017-12-16T02:06:56.786Z,62.10
2017-12-16T02:09:22.543Z,62.63
2017-12-16T02:11:48.288Z,62.10
2017-12-16T02:14:14.048Z,59.70
2017-12-16T02:16:39.818Z,56.00
2017-12-16T02:19:05.579Z,46.20
2017-12-16T02:21:31.356Z,50.63
2017-12-16T02:23:57.133Z,53.07
2017-12-16T02:26:22.880Z,49.83
2017-12-16T02:28:48.655Z,50.33
2017-12-16T02:31:14.403Z,49.60
2017-12-16T02:33:40.171Z,57.33
2017-12-16T02:36:05.928Z,54.53
2017-12-16T02:38:31.693Z,50.40
2017-12-16T02:40:57.453Z,48.93
2017-12-16T02:43:23.199Z,49.67
2017-12-16T02:45:48.980Z,53.03
2017-12-16T02:48:14.730Z,63.80
2017-12-16T02:50:40.534Z,55.37
2017-12-16T02:53:06.279Z,53.67
2017-12-16T02:55:32.064Z,66.33
2017-12-16T02:57:57.836Z,54.07
2017-12-16T03:00:23.637Z,56.50
2017-12-16T03:02:49.382Z,63.43
2017-12-16T03:05:15.147Z,61.93
2017-12-16T03:07:40.899Z,62.37
2017-12-16T03:10:06.662Z,59.63
2017-12-16T03:12:32.418Z,62.13
2017-12-16T03:14:58.248Z,68.10
2017-12-16T03:17:23.942Z,66.33
2017-12-16T03:19:49.691Z,60.67
2017-12-16T03:22:15.470Z,63.00
2017-12-16T03:24:41.214Z,66.07
2017-12-16T03:27:06.977Z,58.93
2017-12-16T03:29:32.747Z,66.80
2017-12-16T03:31:58.507Z,64.10
2017-12-16T03:34:24.276Z,64.70
2017-12-16T03:36:50.051Z,65.50
2017-12-16T03:39:15.795Z,55.50
2017-12-16T03:41:41.622Z,60.83
2017-12-16T03:44:07.324Z,62.70
2017-12-16T03:46:33.090Z,62.27
2017-12-16T03:48:58.833Z,68.87
2017-12-16T03:51:24.611Z,64.00
2017-12-16T03:53:50.363Z,65.30
2017-12-16T03:56:16.111Z,70.97
2017-12-16T03:58:41.858Z,71.93
2017-12-16T04:01:07.611Z,73.50
2017-12-16T04:03:33.392Z,72.17
2017-12-16T04:05:59.142Z,79.00
2017-12-16T04:08:24.906Z,69.33
2017-12-16T04:10:50.658Z,66.90
2017-12-16T04:13:16.423Z,63.27
2017-12-16T04:15:42.163Z,71.37
2017-12-16T04:18:07.956Z,75.33
2017-12-16T04:20:33.714Z,79.30
2017-12-16T04:22:59.488Z,67.60
2017-12-16T04:25:25.235Z,73.77
2017-12-16T04:27:51.028Z,65.07
2017-12-16T04:30:16.796Z,66.20
2017-12-16T04:32:42.560Z,67.63
2017-12-16T04:35:08.335Z,63.83
2017-12-16T04:37:34.086Z,64.23
2017-12-16T04:39:59.860Z,64.03
2017-12-16T04:42:25.612Z,60.30
2017-12-16T04:44:51.384Z,55.03
2017-12-16T04:47:17.133Z,46.97
2017-12-16T04:49:42.896Z,41.60
2017-12-16T04:52:08.642Z,36.37
2017-12-16T04:54:34.400Z,36.80
2017-12-16T04:57:00.145Z,42.83
2017-12-16T04:59:25.921Z,39.87
2017-12-16T05:01:51.667Z,43.53
2017-12-16T05:04:17.416Z,42.73
2017-12-16T05:06:43.173Z,40.97
2017-12-16T05:09:09.008Z,40.63
2017-12-16T05:11:34.695Z,41.30
2017-12-16T05:14:00.494Z,37.27
2017-12-16T05:16:26.235Z,33.23
2017-12-16T05:18:51.991Z,40.07
2017-12-16T05:21:17.753Z,42.53
2017-12-16T05:23:43.500Z,38.97
2017-12-16T05:26:09.252Z,46.43
2017-12-16T05:28:35.006Z,47.10
2017-12-16T05:31:00.774Z,52.63
2017-12-16T05:33:26.515Z,49.63
2017-12-16T05:35:52.366Z,55.20
2017-12-16T05:38:18.120Z,50.33
2017-12-16T05:40:43.881Z,46.27
2017-12-16T05:43:09.644Z,45.43
2017-12-16T05:45:35.408Z,57.17
2017-12-16T05:48:01.168Z,49.20
2017-12-16T05:50:26.931Z,46.57
2017-12-16T05:52:52.679Z,57.33
2017-12-16T05:55:18.458Z,56.13
2017-12-16T05:57:44.209Z,58.13
2017-12-16T06:00:09.988Z,48.93
2017-12-16T06:02:35.743Z,57.20
2017-12-16T06:05:01.513Z,62.83
2017-12-16T06:07:27.263Z,55.87
2017-12-16T06:09:53.035Z,51.83
2017-12-16T06:12:18.795Z,49.13
2017-12-16T06:14:44.555Z,43.13
2017-12-16T06:17:10.316Z,33.67
2017-12-16T06:19:36.079Z,35.37
2017-12-16T06:22:01.852Z,26.97
2017-12-16T06:24:27.621Z,23.97
2017-12-16T06:26:53.373Z,22.63
2017-12-16T06:29:19.148Z,20.27
2017-12-16T06:31:44.915Z,15.40
2017-12-16T06:34:10.672Z,13.03
2017-12-16T06:36:36.432Z,13.10
2017-12-16T06:39:02.186Z,11.53
2017-12-16T06:41:27.951Z,10.50
2017-12-16T06:43:53.716Z,10.97
2017-12-16T06:46:19.491Z,7.50
2017-12-16T06:48:45.242Z,7.87
2017-12-16T06:51:11.016Z,8.90
2017-12-16T06:53:36.767Z,6.17
2017-12-16T06:56:02.536Z,7.17
2017-12-16T06:58:28.283Z,6.07
2017-12-16T07:00:54.040Z,7.27
2017-12-16T07:03:19.803Z,12.43
2017-12-16T07:05:45.569Z,6.40
2017-12-16T07:08:11.342Z,7.53
2017-12-16T07:10:37.116Z,8.67
2017-12-16T07:13:02.865Z,7.37
2017-12-16T07:15:28.635Z,7.83
2017-12-16T07:17:54.411Z,7.73
2017-12-16T07:20:20.150Z,5.23
2017-12-16T07:22:45.924Z,6.17
2017-12-16T07:25:11.668Z,5.73
2017-12-16T07:27:37.439Z,7.30
2017-12-16T07:30:03.243Z,5.87
2017-12-16T07:32:29.000Z,5.90
2017-12-16T07:34:54.764Z,9.57
2017-12-16T07:37:20.543Z,5.87
2017-12-16T07:39:46.292Z,11.20
2017-12-16T07:42:12.121Z,8.77
2017-12-16T07:44:37.815Z,7.57
2017-12-16T07:47:03.603Z,6.83
2017-12-16T07:49:29.368Z,5.83
2017-12-16T07:51:55.115Z,6.27
2017-12-16T07:54:20.880Z,8.83
2017-12-16T07:56:46.626Z,6.90
2017-12-16T07:59:12.395Z,9.20
2017-12-16T08:01:38.155Z,9.80
2017-12-16T08:04:03.914Z,6.90
2017-12-16T08:06:29.680Z,8.43
2017-12-16T08:08:55.466Z,7.10
2017-12-16T08:11:21.207Z,9.43
2017-12-16T08:13:46.970Z,10.50
2017-12-16T08:16:12.730Z,10.10
2017-12-16T08:18:38.496Z,15.23
2017-12-16T08:21:04.236Z,10.83
2017-12-16T08:23:30.012Z,11.93
2017-12-16T08:25:55.759Z,11.93
2017-12-16T08:28:21.543Z,15.37
2017-12-16T08:30:47.274Z,10.80
2017-12-16T08:33:13.019Z,15.17
2017-12-16T08:35:38.796Z,15.23
2017-12-16T08:38:04.538Z,11.50
2017-12-16T08:40:30.303Z,11.40
2017-12-16T08:42:56.043Z,15.27
2017-12-16T08:45:21.804Z,14.97
2017-12-16T08:47:47.556Z,13.30
2017-12-16T08:50:13.307Z,13.80
2017-12-16T08:52:39.079Z,14.23
2017-12-16T08:55:04.844Z,16.70
2017-12-16T08:57:30.595Z,14.67
2017-12-16T08:59:56.347Z,12.93
2017-12-16T09:02:22.095Z,13.83
2017-12-16T09:04:47.847Z,12.37
2017-12-16T09:07:13.607Z,12.67
2017-12-16T09:09:39.386Z,11.20
2017-12-16T09:12:05.127Z,10.57
2017-12-16T09:14:30.867Z,9.23
2017-12-16T09:16:56.628Z,10.87
2017-12-16T09:19:22.383Z,12.57
2017-12-16T09:21:48.134Z,10.40
2017-12-16T09:24:13.867Z,10.07
2017-12-16T09:26:39.647Z,10.17
2017-12-16T09:29:05.391Z,10.20
2017-12-16T09:31:31.150Z,8.27
2017-12-16T09:33:56.899Z,7.07
2017-12-16T09:36:22.662Z,8.10
2017-12-16T09:38:48.420Z,8.30
2017-12-16T09:41:14.192Z,8.70
2017-12-16T09:43:39.964Z,5.73
2017-12-16T09:46:05.948Z,6.83
2017-12-16T09:48:31.712Z,6.80
2017-12-16T09:50:57.472Z,6.67
2017-12-16T09:53:23.444Z,9.03
2017-12-16T09:55:49.236Z,6.25
2017-12-16T09:58:15.011Z,6.77
2017-12-16T10:00:40.749Z,6.17
2017-12-16T10:03:06.516Z,7.50
2017-12-16T10:05:32.337Z,7.30
2017-12-16T10:07:58.115Z,6.10
2017-12-16T10:10:23.856Z,5.60
2017-12-16T10:12:50.369Z,5.57
2017-12-16T10:15:16.176Z,5.85
2017-12-16T10:17:42.563Z,7.43
2017-12-16T10:20:08.340Z,6.72
2017-12-16T10:22:34.104Z,5.60
2017-12-16T10:24:59.857Z,5.80
2017-12-16T10:27:25.639Z,9.17
2017-12-16T10:29:51.403Z,6.20
2017-12-16T10:32:17.176Z,4.90
2017-12-16T10:34:42.933Z,5.07
2017-12-16T10:37:08.703Z,4.30
2017-12-16T10:39:34.443Z,5.67
2017-12-16T10:42:00.632Z,3.77
2017-12-16T10:44:26.402Z,6.05
2017-12-16T10:46:52.144Z,3.87
2017-12-16T10:49:17.906Z,4.23
2017-12-16T10:51:43.668Z,8.60
2017-12-16T10:54:09.495Z,3.83
2017-12-16T10:56:35.301Z,5.03
2017-12-16T10:59:01.070Z,5.70
2017-12-16T11:01:26.821Z,3.67
2017-12-16T11:03:52.592Z,2.87
2017-12-16T11:06:18.383Z,6.03
2017-12-16T11:08:44.140Z,4.63
2017-12-16T11:11:09.900Z,4.93
2017-12-16T11:13:35.673Z,5.27
2017-12-16T11:16:01.447Z,2.67
2017-12-16T11:18:27.213Z,3.90
2017-12-16T11:20:52.960Z,3.97
2017-12-16T11:23:18.746Z,4.30
2017-12-16T11:25:44.860Z,3.23
2017-12-16T11:28:10.660Z,3.78
2017-12-16T11:30:37.114Z,3.33
2017-12-16T11:33:02.852Z,3.25
2017-12-16T11:35:28.632Z,4.33
2017-12-16T11:37:55.260Z,3.60
2017-12-16T11:40:21.011Z,3.83
2017-12-16T11:42:46.849Z,3.23
2017-12-16T11:45:12.610Z,4.30
2017-12-16T11:47:38.379Z,3.73
2017-12-16T11:50:04.164Z,2.43
2017-12-16T11:52:29.923Z,4.63
2017-12-16T11:54:55.704Z,3.67
2017-12-16T11:57:21.451Z,5.70
2017-12-16T11:59:47.255Z,4.73
2017-12-16T12:02:13.012Z,3.73
2017-12-16T12:04:38.760Z,5.33
2017-12-16T12:07:04.564Z,4.07
2017-12-16T12:09:30.315Z,3.13
2017-12-16T12:11:56.092Z,5.47
2017-12-16T12:14:21.843Z,3.77
2017-12-16T12:16:47.648Z,4.13
2017-12-16T12:19:13.519Z,5.43
2017-12-16T12:21:39.333Z,6.27
2017-12-16T12:24:05.095Z,5.27
2017-12-16T12:26:30.858Z,4.13
2017-12-16T12:28:56.612Z,6.20
2017-12-16T12:31:22.411Z,4.53
2017-12-16T12:33:48.164Z,6.27
2017-12-16T12:36:13.935Z,3.90
2017-12-16T12:38:39.842Z,4.50
2017-12-16T12:41:05.578Z,3.77
2017-12-16T12:43:31.416Z,4.83
2017-12-16T12:45:57.273Z,3.50
2017-12-16T12:48:22.975Z,4.73
2017-12-16T12:50:48.754Z,4.63
2017-12-16T12:53:14.516Z,4.20
2017-12-16T12:55:40.266Z,5.97
2017-12-16T12:58:06.019Z,6.03
2017-12-16T13:00:31.767Z,6.00
2017-12-16T13:02:57.519Z,2.97
2017-12-16T13:05:23.261Z,5.50
2017-12-16T13:07:49.012Z,4.60
2017-12-16T13:10:14.767Z,3.77
2017-12-16T13:12:40.528Z,2.33
2017-12-16T13:15:06.274Z,3.00
2017-12-16T13:17:32.029Z,6.80
2017-12-16T13:19:57.765Z,4.37
2017-12-16T13:22:23.511Z,4.33
2017-12-16T13:24:49.262Z,9.23
2017-12-16T13:27:15.016Z,4.53
2017-12-16T13:29:40.787Z,4.53
2017-12-16T13:32:06.560Z,5.03
2017-12-16T13:34:32.319Z,5.90
2017-12-16T13:36:58.149Z,8.23
2017-12-16T13:39:23.910Z,5.17
2017-12-16T13:41:49.732Z,3.17
2017-12-16T13:44:15.500Z,4.13
2017-12-16T13:46:41.252Z,3.53
2017-12-16T13:49:07.008Z,3.87
2017-12-16T13:51:32.764Z,5.70
2017-12-16T13:53:58.541Z,3.67
2017-12-16T13:56:24.295Z,5.43
2017-12-16T13:58:50.027Z,7.63
2017-12-16T14:01:15.788Z,4.27
2017-12-16T14:03:41.586Z,5.57
2017-12-16T14:06:07.387Z,3.53
2017-12-16T14:08:33.143Z,7.47
2017-12-16T14:10:58.887Z,5.63
2017-12-16T14:13:24.644Z,5.40
2017-12-16T14:15:50.384Z,3.60
2017-12-16T14:18:16.119Z,3.07
2017-12-16T14:20:41.871Z,5.20
2017-12-16T14:23:07.619Z,4.70
2017-12-16T14:25:33.376Z,3.67
2017-12-16T14:27:59.112Z,4.17
2017-12-16T14:30:24.884Z,6.00
2017-12-16T14:32:50.620Z,5.30
2017-12-16T14:35:16.384Z,7.17
2017-12-16T14:37:42.119Z,4.60
2017-12-16T14:40:07.892Z,5.23
2017-12-16T14:42:33.635Z,2.53
2017-12-16T14:44:59.421Z,4.33
2017-12-16T14:47:25.167Z,3.87
2017-12-16T14:49:50.928Z,3.30
2017-12-16T14:52:16.695Z,3.80
2017-12-16T14:54:42.459Z,3.73
2017-12-16T14:57:08.268Z,4.97
2017-12-16T14:59:34.016Z,5.00
2017-12-16T15:01:59.772Z,5.43
2017-12-16T15:04:25.524Z,5.47
2017-12-16T15:06:51.292Z,9.00
2017-12-16T15:09:17.033Z,8.97
2017-12-16T15:11:49.707Z,5.23
2017-12-16T15:14:15.443Z,8.70
2017-12-16T15:16:41.191Z,8.40
2017-12-16T15:19:06.950Z,9.63
2017-12-16T15:21:32.719Z,9.53
2017-12-16T15:23:58.468Z,10.70
2017-12-16T15:26:24.238Z,9.33
2017-12-16T15:28:49.975Z,7.73
2017-12-16T15:31:15.739Z,9.97
2017-12-16T15:33:41.519Z,10.00
2017-12-16T15:36:07.269Z,10.67
2017-12-16T15:38:33.052Z,7.03
2017-12-16T15:40:58.825Z,4.93
2017-12-16T15:43:24.617Z,3.93
2017-12-16T15:45:50.351Z,4.87
2017-12-16T15:48:16.117Z,4.40
2017-12-16T15:50:41.853Z,6.20
2017-12-16T15:53:07.604Z,7.17
2017-12-16T15:55:33.360Z,5.63
2017-12-16T15:57:59.147Z,3.47
2017-12-16T16:00:24.896Z,5.53
2017-12-16T16:02:50.664Z,6.27
2017-12-16T16:05:16.423Z,5.17
2017-12-16T16:07:42.204Z,7.77
2017-12-16T16:10:07.958Z,5.87
2017-12-16T16:12:33.752Z,8.40
2017-12-16T16:14:59.498Z,7.03
2017-12-16T16:17:25.249Z,5.87
2017-12-16T16:19:51.062Z,8.27
2017-12-16T16:22:16.840Z,8.03
2017-12-16T16:24:42.639Z,6.20
2017-12-16T16:27:08.439Z,6.07
2017-12-16T16:29:34.193Z,6.50
2017-12-16T16:31:59.944Z,6.93
2017-12-16T16:34:25.709Z,7.00
2017-12-16T16:36:51.455Z,6.30
2017-12-16T16:39:17.224Z,6.77
2017-12-16T16:41:42.976Z,3.90
2017-12-16T16:44:08.743Z,7.87
2017-12-16T16:46:34.495Z,6.23
2017-12-16T16:49:00.273Z,4.87
2017-12-16T16:51:26.021Z,6.23
2017-12-16T16:53:51.788Z,4.50
2017-12-16T16:56:17.524Z,5.43
2017-12-16T16:58:43.295Z,5.20
2017-12-16T17:01:09.076Z,5.10
2017-12-16T17:03:34.824Z,7.40
2017-12-16T17:06:00.595Z,5.53
2017-12-16T17:08:26.367Z,6.03
2017-12-16T17:10:52.124Z,13.00
2017-12-16T17:13:17.895Z,7.20
2017-12-16T17:15:43.652Z,7.60
2017-12-16T17:18:09.407Z,9.00
2017-12-16T17:20:35.163Z,5.13
2017-12-16T17:23:00.907Z,5.23
2017-12-16T17:25:26.668Z,4.97
2017-12-16T17:27:52.428Z,4.80
2017-12-16T17:30:18.203Z,6.13
2017-12-16T17:32:43.944Z,6.23
2017-12-16T17:35:09.700Z,4.10
2017-12-16T17:37:35.471Z,4.80
2017-12-16T17:40:01.232Z,7.23
2017-12-16T17:42:26.998Z,6.07
2017-12-16T17:44:52.754Z,7.13
2017-12-16T17:47:18.535Z,4.00
2017-12-16T17:49:44.280Z,9.90
2017-12-16T17:52:10.044Z,5.07
2017-12-16T17:54:35.779Z,6.93
2017-12-16T17:57:01.536Z,4.37
2017-12-16T17:59:27.283Z,5.67
2017-12-16T18:01:53.063Z,6.77
2017-12-16T18:04:18.803Z,7.27
2017-12-16T18:06:44.576Z,5.57
2017-12-16T18:09:10.332Z,6.13
2017-12-16T18:11:38.316Z,13.00
2017-12-16T18:14:04.127Z,6.12
2017-12-16T18:16:29.888Z,6.70
2017-12-16T18:18:55.651Z,9.43
2017-12-16T18:21:21.400Z,10.57
2017-12-16T18:23:47.177Z,9.00
2017-12-16T18:26:12.966Z,9.73
2017-12-16T18:28:38.744Z,7.50
2017-12-16T18:31:04.494Z,8.17
2017-12-16T18:33:30.264Z,10.80
2017-12-16T18:35:56.028Z,6.30
2017-12-16T18:38:21.790Z,7.13
2017-12-16T18:40:47.546Z,5.77
2017-12-16T18:43:13.298Z,5.20
2017-12-16T18:45:39.079Z,7.67
2017-12-16T18:48:04.853Z,5.53
2017-12-16T18:50:30.617Z,6.70
2017-12-16T18:52:56.388Z,7.37
2017-12-16T18:55:22.144Z,6.57
2017-12-16T18:57:47.899Z,5.37
2017-12-16T19:00:16.623Z,5.83
2017-12-16T19:02:42.393Z,8.30
2017-12-16T19:05:08.155Z,9.80
2017-12-16T19:07:33.927Z,7.03
2017-12-16T19:09:59.696Z,5.77
2017-12-16T19:12:25.454Z,6.37
2017-12-16T19:14:51.225Z,5.23
2017-12-16T19:17:16.969Z,5.77
2017-12-16T19:19:42.754Z,8.80
2017-12-16T19:22:08.520Z,9.30
2017-12-16T19:24:34.294Z,8.97
2017-12-16T19:27:00.050Z,8.30
2017-12-16T19:29:25.815Z,10.07
2017-12-16T19:31:51.585Z,9.03
2017-12-16T19:34:17.351Z,10.53
2017-12-16T19:36:43.121Z,6.70
2017-12-16T19:39:08.883Z,7.23
2017-12-16T19:41:34.628Z,6.47
2017-12-16T19:44:00.398Z,7.73
2017-12-16T19:46:26.176Z,7.70
2017-12-16T19:48:51.931Z,8.17
2017-12-16T19:51:17.672Z,10.57
2017-12-16T19:53:43.448Z,10.10
2017-12-16T19:56:09.217Z,8.13
2017-12-16T19:58:34.979Z,7.57
2017-12-16T20:01:00.732Z,6.70
2017-12-16T20:03:26.493Z,11.20
2017-12-16T20:05:52.267Z,7.13
2017-12-16T20:08:18.043Z,10.93
2017-12-16T20:10:43.825Z,7.67
2017-12-16T20:13:09.569Z,5.80
2017-12-16T20:15:35.361Z,7.43
2017-12-16T20:18:01.109Z,5.43
2017-12-16T20:20:26.875Z,8.53
2017-12-16T20:22:52.636Z,5.27
2017-12-16T20:25:18.403Z,6.00
2017-12-16T20:27:44.154Z,8.90
2017-12-16T20:30:09.920Z,10.07
2017-12-16T20:32:35.685Z,14.70
2017-12-16T20:35:01.451Z,10.00
2017-12-16T20:37:27.191Z,9.37
2017-12-16T20:39:52.984Z,7.30
2017-12-16T20:42:18.732Z,7.33
2017-12-16T20:44:44.502Z,7.43
2017-12-16T20:47:10.257Z,8.90
2017-12-16T20:49:36.005Z,4.27
2017-12-16T20:52:01.769Z,8.30
2017-12-16T20:54:27.516Z,5.97
2017-12-16T20:56:53.276Z,4.97
2017-12-16T20:59:19.032Z,6.10
2017-12-16T21:01:44.815Z,4.47
2017-12-16T21:04:10.579Z,10.03
2017-12-16T21:06:36.348Z,8.73
2017-12-16T21:09:02.104Z,5.70
2017-12-16T21:11:27.860Z,4.17
2017-12-16T21:13:53.620Z,4.53
2017-12-16T21:16:19.418Z,3.53
2017-12-16T21:18:45.175Z,6.93
2017-12-16T21:21:10.952Z,7.60
2017-12-16T21:23:36.704Z,8.60
2017-12-16T21:26:02.561Z,7.50
2017-12-16T21:28:30.760Z,10.73
2017-12-16T21:30:56.525Z,8.27
2017-12-16T21:33:22.288Z,7.60
2017-12-16T21:35:48.044Z,6.93
2017-12-16T21:38:13.799Z,9.30
2017-12-16T21:40:39.547Z,10.43
2017-12-16T21:43:05.312Z,9.93
2017-12-16T21:45:31.066Z,11.67
2017-12-16T21:47:56.829Z,6.47
2017-12-16T21:50:22.618Z,5.73
2017-12-16T21:52:48.366Z,3.10
2017-12-16T21:55:14.117Z,6.50
2017-12-16T21:57:39.868Z,5.70
2017-12-16T22:00:05.641Z,5.73
2017-12-16T22:02:31.383Z,6.23
2017-12-16T22:04:57.158Z,9.43
2017-12-16T22:07:22.909Z,12.17
2017-12-16T22:09:48.667Z,8.80
2017-12-16T22:12:14.421Z,12.03
2017-12-16T22:14:40.187Z,12.53
2017-12-16T22:17:05.945Z,14.47
2017-12-16T22:19:31.699Z,17.30
2017-12-16T22:21:57.434Z,12.70
2017-12-16T22:24:23.197Z,11.53
2017-12-16T22:26:48.950Z,14.07
2017-12-16T22:29:14.719Z,15.00
2017-12-16T22:31:40.468Z,15.70
2017-12-16T22:34:06.218Z,13.47
2017-12-16T22:36:31.976Z,14.60
2017-12-16T22:38:58.008Z,18.43
2017-12-16T22:41:23.839Z,25.55
2017-12-16T22:43:49.543Z,33.20
2017-12-16T22:46:15.299Z,43.20
2017-12-16T22:48:41.052Z,41.40
2017-12-16T22:51:06.823Z,46.13
2017-12-16T22:53:32.792Z,41.90
2017-12-16T22:55:58.570Z,39.43
2017-12-16T22:58:24.333Z,41.67
2017-12-16T23:00:50.103Z,37.10
2017-12-16T23:03:15.852Z,31.37
2017-12-16T23:05:41.628Z,41.60
2017-12-16T23:08:07.394Z,22.23
2017-12-16T23:10:33.148Z,26.27
2017-12-16T23:12:58.909Z,23.53
2017-12-16T23:15:24.643Z,21.73
2017-12-16T23:17:50.421Z,18.77
2017-12-16T23:20:16.176Z,18.43
2017-12-16T23:22:41.930Z,21.87
2017-12-16T23:25:07.708Z,23.10
2017-12-16T23:27:33.491Z,15.50
2017-12-16T23:29:59.247Z,15.13
2017-12-16T23:32:25.015Z,13.67
2017-12-16T23:34:50.788Z,14.97
2017-12-16T23:37:16.583Z,19.20
2017-12-16T23:39:42.328Z,14.10
2017-12-16T23:42:08.080Z,13.63
2017-12-16T23:44:33.839Z,12.00
2017-12-16T23:46:59.577Z,11.97
2017-12-16T23:49:25.345Z,11.17
2017-12-16T23:51:51.091Z,12.40
2017-12-16T23:54:16.847Z,10.03
2017-12-16T23:56:42.608Z,10.33
2017-12-16T23:59:08.363Z,10.20
